Chandler Field
KAXN : now visible

Airfield :











YOU CAN JOIN US ON...

 
LOGIN :

Register | Disclaimer

   EN    FR    IT 

 









Legend :    VFR   Marginal VFR   IFR   Intensive IFR   Very Intensive IFR
Visi :
Ceiling :
>= 8 km
>= 3000ft
5 to 8 km
1000 to 3000 ft
1500m to 5 km
500 to 1000 ft
800 to 1500m
200 to 500 ft
< 800m
< 200 ft
Symbols :   Thunderstorms  Fog  Heavy snow  Heavy precipitations  Wind > 20 kt






- Airport Elevation : 1425 ft


KAXN - Chandler Field

CURRENT METAR :
  • 280753Z AUTO 15010KT 10SM CLR M03/M04 A2970 RMK AO2 SLP075 T10281044

EXPIRED METARs :
  • 280653Z AUTO 14008KT 10SM CLR M03/M05 A2972 RMK AO2 SLP082 T10331050
  • 280553Z AUTO 14006KT 10SM CLR M03/M05 A2975 RMK AO2 SLP093 I6000 T10331050 11028 21050 400171056 56007

TAF KAXN
Valid from the 28 at 06:00 until the 29 at 06:00 UTC


280556Z 2806/2906 15008KT P6SM BKN200
FM281100 15011G19KT P6SM BKN200
FM281700 18013G21KT P6SM BKN150
FM282200 26011KT P6SM BKN100
FM290500 28011KT P6SM OVC100
KZMP FIR / North America



MET'MAP, your aeronautical weather chart ! - Copyright ORBIFLY December 2007 - Disclaimer

ORBIFLY MET'MAP TEAM :

Programming & Development : Alexandra Zaïnal
Original concept : Baudouin d'Aumeries
Technical & hardware support : Manuel Goepfert
Assistance : Marc-Olivier Méhu




SOURCES & CREDITS :

   NOAA       Earth
Advisory